createdAt,value
2023-07-22T00:02:17.716Z,7.88
2023-07-22T00:04:44.693Z,7.47
2023-07-22T00:07:11.947Z,7.38
2023-07-22T00:09:39.853Z,9.55
2023-07-22T00:12:06.805Z,6.63
2023-07-22T00:14:33.409Z,7.05
2023-07-22T00:17:00.006Z,7.03
2023-07-22T00:19:26.599Z,6.40
2023-07-22T00:21:53.360Z,6.47
2023-07-22T00:24:19.966Z,6.43
2023-07-22T00:26:46.606Z,6.43
2023-07-22T00:29:13.245Z,6.13
2023-07-22T00:31:39.755Z,8.65
2023-07-22T00:34:06.400Z,7.47
2023-07-22T00:36:33.077Z,6.15
2023-07-22T00:38:59.802Z,7.05
2023-07-22T00:41:26.941Z,5.70
2023-07-22T00:43:53.725Z,5.82
2023-07-22T00:46:20.342Z,5.25
2023-07-22T00:48:48.661Z,5.25
2023-07-22T00:51:15.776Z,6.80
2023-07-22T00:53:42.441Z,4.93
2023-07-22T00:56:09.642Z,5.28
2023-07-22T00:58:36.545Z,4.45
2023-07-22T01:01:03.261Z,5.38
2023-07-22T01:03:29.988Z,6.32
2023-07-22T01:05:58.077Z,5.07
2023-07-22T01:08:24.538Z,5.25
2023-07-22T01:10:50.980Z,5.00
2023-07-22T01:13:17.597Z,7.07
2023-07-22T01:15:44.499Z,6.72
2023-07-22T01:18:11.287Z,5.78
2023-07-22T01:20:38.762Z,7.80
2023-07-22T01:23:05.647Z,4.63
2023-07-22T01:25:32.258Z,4.93
2023-07-22T01:27:58.834Z,4.72
2023-07-22T01:30:27.410Z,8.13
2023-07-22T01:32:54.433Z,4.95
2023-07-22T01:35:22.356Z,4.70
2023-07-22T01:37:48.992Z,5.35
2023-07-22T01:40:15.533Z,4.90
2023-07-22T01:42:43.275Z,5.00
2023-07-22T01:45:10.619Z,7.15
2023-07-22T01:47:37.915Z,5.18
2023-07-22T01:50:07.437Z,5.55
2023-07-22T01:52:34.175Z,5.63
2023-07-22T01:55:00.853Z,4.80
2023-07-22T01:57:27.403Z,5.05
2023-07-22T01:59:53.997Z,5.57
2023-07-22T02:02:21.236Z,5.78
2023-07-22T02:04:47.806Z,8.43
2023-07-22T02:07:14.873Z,5.78
2023-07-22T02:09:42.042Z,8.25
2023-07-22T02:12:09.419Z,6.82
2023-07-22T02:14:35.951Z,6.72
2023-07-22T02:17:02.537Z,7.18
2023-07-22T02:19:29.721Z,8.43
2023-07-22T02:21:56.332Z,7.65
2023-07-22T02:24:23.027Z,6.75
2023-07-22T02:26:49.660Z,6.97
2023-07-22T02:29:16.269Z,7.47
2023-07-22T02:31:42.873Z,9.10
2023-07-22T02:34:09.439Z,7.57
2023-07-22T02:36:35.975Z,8.93
2023-07-22T02:39:02.666Z,7.82
2023-07-22T02:41:29.128Z,7.07
2023-07-22T02:43:55.815Z,8.10
2023-07-22T02:46:23.007Z,6.63
2023-07-22T02:48:49.911Z,7.40
2023-07-22T02:51:16.548Z,8.73
2023-07-22T02:53:43.482Z,8.07
2023-07-22T02:56:12.084Z,7.45
2023-07-22T02:58:38.660Z,7.25
2023-07-22T03:01:06.364Z,8.75
2023-07-22T03:03:35.931Z,8.68
2023-07-22T03:06:04.364Z,9.65
2023-07-22T03:08:31.423Z,7.70
2023-07-22T03:10:57.963Z,7.53
2023-07-22T03:13:24.536Z,12.45
2023-07-22T03:15:51.495Z,9.60
2023-07-22T03:18:18.110Z,8.95
2023-07-22T03:20:44.780Z,11.00
2023-07-22T03:23:11.349Z,10.98
2023-07-22T03:25:37.904Z,10.82
2023-07-22T03:28:06.157Z,11.90
2023-07-22T03:30:33.037Z,12.35
2023-07-22T03:33:00.182Z,11.65
2023-07-22T03:35:27.015Z,13.18
2023-07-22T03:37:53.582Z,12.32
2023-07-22T03:40:27.787Z,13.80
2023-07-22T03:42:55.989Z,15.52
2023-07-22T03:45:23.429Z,13.05
2023-07-22T03:48:01.298Z,13.52
2023-07-22T03:50:29.050Z,12.93
2023-07-22T03:52:55.675Z,14.45
2023-07-22T03:55:22.236Z,14.82
2023-07-22T03:57:49.084Z,14.25
2023-07-22T04:00:15.948Z,16.75
2023-07-22T04:02:42.872Z,15.85
2023-07-22T04:05:11.052Z,15.27
2023-07-22T04:07:37.977Z,17.13
2023-07-22T04:10:04.917Z,19.38
2023-07-22T04:12:32.636Z,16.95
2023-07-22T04:14:59.257Z,15.68
2023-07-22T04:17:28.784Z,17.23
2023-07-22T04:19:55.450Z,15.93
2023-07-22T04:22:23.162Z,17.35
2023-07-22T04:24:50.213Z,15.52
2023-07-22T04:27:17.389Z,15.10
2023-07-22T04:29:44.203Z,12.82
2023-07-22T04:32:10.812Z,15.60
2023-07-22T04:34:37.365Z,15.98
2023-07-22T04:37:04.234Z,18.75
2023-07-22T04:39:30.773Z,14.57
2023-07-22T04:41:57.407Z,17.23
2023-07-22T04:44:25.029Z,15.23
2023-07-22T04:46:51.787Z,13.98
2023-07-22T04:49:19.196Z,14.70
2023-07-22T04:51:47.182Z,13.95
2023-07-22T04:54:14.295Z,19.48
2023-07-22T04:56:40.876Z,20.45
2023-07-22T04:59:07.819Z,18.67
2023-07-22T05:01:34.332Z,15.98
2023-07-22T05:04:01.169Z,18.50
2023-07-22T05:06:30.002Z,20.08
2023-07-22T05:08:56.777Z,22.17
2023-07-22T05:11:24.361Z,18.50
2023-07-22T05:13:51.890Z,15.70
2023-07-22T05:16:18.634Z,21.23
2023-07-22T05:18:45.212Z,20.17
2023-07-22T05:21:11.709Z,17.30
2023-07-22T05:23:38.238Z,20.83
2023-07-22T05:26:04.964Z,20.30
2023-07-22T05:28:31.639Z,22.60
2023-07-22T05:30:58.419Z,22.63
2023-07-22T05:33:25.197Z,21.20
2023-07-22T05:35:51.777Z,20.13
2023-07-22T05:38:18.457Z,23.52
2023-07-22T05:40:45.632Z,27.48
2023-07-22T05:43:12.349Z,24.27
2023-07-22T05:45:38.929Z,27.85
2023-07-22T05:48:05.950Z,23.30
2023-07-22T05:50:32.544Z,27.95
2023-07-22T05:52:59.114Z,29.30
2023-07-22T05:55:25.690Z,27.73
2023-07-22T05:57:52.260Z,23.92
2023-07-22T06:00:19.895Z,26.30
2023-07-22T06:02:46.553Z,24.20
2023-07-22T06:05:13.111Z,26.45
2023-07-22T06:07:39.861Z,27.05
2023-07-22T06:10:07.435Z,29.10
2023-07-22T06:12:34.126Z,29.83
2023-07-22T06:15:00.717Z,26.20
2023-07-22T06:17:27.814Z,23.13
2023-07-22T06:19:54.605Z,24.48
2023-07-22T06:22:21.110Z,27.15
2023-07-22T06:24:47.829Z,25.02
2023-07-22T06:27:14.372Z,18.98
2023-07-22T06:29:40.936Z,24.85
2023-07-22T06:32:07.995Z,26.20
2023-07-22T06:34:34.587Z,28.20
2023-07-22T06:37:01.148Z,25.73
2023-07-22T06:39:27.673Z,25.40
2023-07-22T06:41:54.344Z,22.58
2023-07-22T06:44:20.900Z,21.05
2023-07-22T06:46:47.494Z,23.65
2023-07-22T06:49:14.118Z,26.13
2023-07-22T06:51:40.650Z,22.90
2023-07-22T06:54:07.233Z,22.77
2023-07-22T06:56:33.831Z,25.98
2023-07-22T06:59:00.427Z,23.23
2023-07-22T07:01:27.076Z,30.75
2023-07-22T07:03:53.718Z,25.80
2023-07-22T07:06:20.499Z,27.83
2023-07-22T07:08:47.138Z,21.50
2023-07-22T07:11:13.699Z,26.60
2023-07-22T07:13:40.221Z,19.63
2023-07-22T07:16:28.224Z,21.52
2023-07-22T07:18:56.602Z,21.13
2023-07-22T07:21:23.626Z,20.17
2023-07-22T07:23:50.598Z,22.23
2023-07-22T07:26:17.173Z,20.60
2023-07-22T07:28:43.992Z,21.20
2023-07-22T07:31:11.039Z,21.55
2023-07-22T07:33:37.680Z,19.30
2023-07-22T07:36:05.066Z,19.23
2023-07-22T07:38:32.582Z,17.35
2023-07-22T07:41:05.049Z,20.50
2023-07-22T07:43:31.671Z,17.58
2023-07-22T07:46:23.379Z,16.88
2023-07-22T07:48:53.279Z,18.08
2023-07-22T07:51:22.137Z,16.52
2023-07-22T07:53:49.886Z,18.13
2023-07-22T07:56:18.399Z,19.70
2023-07-22T07:58:46.801Z,20.17
2023-07-22T08:01:13.694Z,17.70
2023-07-22T08:03:45.653Z,16.73
2023-07-22T08:06:13.307Z,15.50
2023-07-22T08:08:40.610Z,25.75
2023-07-22T08:11:14.476Z,20.05
2023-07-22T08:13:41.744Z,18.40
2023-07-22T08:16:09.938Z,14.45
2023-07-22T08:18:37.585Z,20.23
2023-07-22T08:21:05.659Z,13.65
2023-07-22T08:23:32.223Z,20.08
2023-07-22T08:25:58.835Z,13.75
2023-07-22T08:28:25.619Z,15.98
2023-07-22T08:30:55.819Z,17.50
2023-07-22T08:33:38.936Z,16.52
2023-07-22T08:36:08.510Z,15.20
2023-07-22T08:38:35.246Z,14.13
2023-07-22T08:41:01.944Z,15.10
2023-07-22T08:43:30.164Z,12.60
2023-07-22T08:46:01.456Z,19.15
2023-07-22T08:48:34.290Z,16.92
2023-07-22T08:51:06.347Z,15.52
2023-07-22T08:53:34.421Z,14.98
2023-07-22T08:56:03.397Z,17.10
2023-07-22T08:58:30.829Z,14.65
2023-07-22T09:00:57.930Z,13.35
2023-07-22T09:03:25.440Z,11.07
2023-07-22T09:05:52.956Z,13.23
2023-07-22T09:08:19.697Z,11.48
2023-07-22T09:10:47.195Z,15.60
2023-07-22T09:13:19.509Z,12.50
2023-07-22T09:15:48.937Z,13.32
2023-07-22T09:18:16.750Z,8.50
2023-07-22T09:20:43.680Z,8.27
2023-07-22T09:23:14.061Z,10.35
2023-07-22T09:25:42.723Z,12.77
2023-07-22T09:28:10.441Z,12.55
2023-07-22T09:30:42.227Z,9.52
2023-07-22T09:33:21.650Z,7.28
2023-07-22T09:35:50.297Z,7.45
2023-07-22T09:38:26.712Z,9.85
2023-07-22T09:40:54.334Z,7.53
2023-07-22T09:43:23.585Z,9.07
2023-07-22T09:45:50.155Z,6.22
2023-07-22T09:48:17.712Z,9.77
2023-07-22T09:50:44.706Z,7.53
2023-07-22T09:53:17.213Z,5.90
2023-07-22T09:55:44.978Z,6.75
2023-07-22T09:58:11.956Z,10.73
2023-07-22T10:00:40.186Z,9.48
2023-07-22T10:03:14.602Z,11.23
2023-07-22T10:05:44.014Z,9.27
2023-07-22T10:08:13.156Z,7.75
2023-07-22T10:10:40.145Z,8.07
2023-07-22T10:13:07.509Z,7.47
2023-07-22T10:15:35.777Z,7.20
2023-07-22T10:18:04.495Z,6.00
2023-07-22T10:20:31.833Z,6.85
2023-07-22T10:23:00.096Z,5.70
2023-07-22T10:25:26.620Z,6.63
2023-07-22T10:27:54.253Z,6.13
2023-07-22T10:30:21.154Z,5.82
2023-07-22T10:32:52.952Z,8.65
2023-07-22T10:35:35.124Z,9.18
2023-07-22T10:38:09.110Z,5.05
2023-07-22T10:40:48.593Z,5.22
2023-07-22T10:43:19.710Z,6.45
2023-07-22T10:45:54.777Z,7.78
2023-07-22T10:48:23.896Z,4.57
2023-07-22T10:50:55.194Z,7.13
2023-07-22T10:53:24.792Z,5.68
2023-07-22T10:56:10.236Z,4.40
2023-07-22T10:58:45.783Z,5.95
2023-07-22T11:01:27.736Z,5.18
2023-07-22T11:04:13.891Z,4.85
2023-07-22T11:06:49.285Z,4.00
2023-07-22T11:09:37.081Z,4.35
2023-07-22T11:12:05.116Z,4.28
2023-07-22T11:14:38.537Z,4.40
2023-07-22T11:17:06.899Z,4.30
2023-07-22T11:19:36.344Z,4.57
2023-07-22T11:22:04.156Z,4.90
2023-07-22T11:24:31.155Z,5.13
2023-07-22T11:26:57.792Z,6.35
2023-07-22T11:29:24.321Z,7.03
2023-07-22T11:31:52.650Z,9.20
2023-07-22T11:34:24.672Z,4.28
2023-07-22T11:36:52.624Z,4.28
2023-07-22T11:39:21.427Z,5.90
2023-07-22T11:41:49.164Z,6.65
2023-07-22T11:44:18.476Z,4.00
2023-07-22T11:47:05.906Z,4.78
2023-07-22T11:49:37.662Z,4.40
2023-07-22T11:52:06.585Z,10.75
2023-07-22T11:54:34.640Z,8.85
2023-07-22T11:57:30.510Z,6.82
2023-07-22T11:59:57.968Z,7.93
2023-07-22T12:02:27.106Z,5.80
2023-07-22T12:05:06.182Z,6.07
2023-07-22T12:07:37.615Z,5.43
2023-07-22T12:10:06.659Z,3.92
2023-07-22T12:12:37.116Z,4.90
2023-07-22T12:15:16.589Z,5.93
2023-07-22T12:17:51.387Z,5.35
2023-07-22T12:20:18.855Z,3.42
2023-07-22T12:22:45.838Z,4.63
2023-07-22T12:25:12.574Z,9.18
2023-07-22T12:27:39.264Z,6.13
2023-07-22T12:30:07.990Z,5.70
2023-07-22T12:32:34.914Z,5.75
2023-07-22T12:35:01.758Z,4.90
2023-07-22T12:37:29.378Z,3.72
2023-07-22T12:39:56.137Z,7.78
2023-07-22T12:42:22.797Z,6.25
2023-07-22T12:44:49.444Z,4.60
2023-07-22T12:47:16.079Z,3.92
2023-07-22T12:49:43.310Z,4.97
2023-07-22T12:52:10.457Z,4.35
2023-07-22T12:54:37.210Z,3.90
2023-07-22T12:57:04.045Z,10.57
2023-07-22T12:59:30.521Z,5.40
2023-07-22T13:01:59.052Z,9.70
2023-07-22T13:04:26.187Z,8.18
2023-07-22T13:06:52.889Z,6.68
2023-07-22T13:09:20.543Z,8.48
2023-07-22T13:11:47.508Z,5.63
2023-07-22T13:14:15.263Z,6.75
2023-07-22T13:16:41.813Z,6.28
2023-07-22T13:19:08.332Z,5.45
2023-07-22T13:21:34.861Z,5.80
2023-07-22T13:24:01.401Z,7.88
2023-07-22T13:26:27.971Z,6.88
2023-07-22T13:28:54.590Z,7.85
2023-07-22T13:31:21.247Z,6.68
2023-07-22T13:33:47.819Z,6.97
2023-07-22T13:36:14.354Z,5.57
2023-07-22T13:38:41.088Z,7.47
2023-07-22T13:41:07.608Z,7.80
2023-07-22T13:43:34.211Z,4.93
2023-07-22T13:46:00.771Z,6.32
2023-07-22T13:48:27.344Z,3.90
2023-07-22T13:50:53.962Z,2.97
2023-07-22T13:53:20.477Z,3.95
2023-07-22T13:55:50.203Z,2.53
2023-07-22T14:00:45.080Z,4.40
2023-07-22T14:03:11.713Z,5.75
2023-07-22T14:05:38.296Z,5.40
2023-07-22T14:08:05.068Z,3.13
2023-07-22T14:10:31.689Z,8.30
2023-07-22T14:12:58.217Z,5.65
2023-07-22T14:15:24.769Z,4.90
2023-07-22T14:17:51.346Z,5.57
2023-07-22T14:20:17.905Z,2.90
2023-07-22T14:22:44.814Z,2.33
2023-07-22T14:25:11.508Z,3.45
2023-07-22T14:27:41.264Z,2.33
2023-07-22T14:30:09.035Z,3.83
2023-07-22T14:32:35.709Z,4.97
2023-07-22T14:35:02.412Z,4.32
2023-07-22T14:37:28.938Z,2.15
2023-07-22T14:39:55.489Z,3.65
2023-07-22T14:42:21.987Z,2.25
2023-07-22T14:44:48.678Z,3.45
2023-07-22T14:47:15.194Z,2.65
2023-07-22T14:49:41.720Z,3.40
2023-07-22T14:52:08.460Z,2.63
2023-07-22T14:54:35.109Z,5.18
2023-07-22T14:57:01.718Z,3.95
2023-07-22T14:59:28.180Z,1.90
2023-07-22T15:01:55.374Z,1.90
2023-07-22T15:04:21.971Z,3.40
2023-07-22T15:06:48.554Z,2.13
2023-07-22T15:09:15.125Z,3.47
2023-07-22T15:11:41.667Z,2.42
2023-07-22T15:14:08.335Z,2.58
2023-07-22T15:16:34.988Z,2.35
2023-07-22T15:19:01.707Z,5.13
2023-07-22T15:21:28.603Z,2.40
2023-07-22T15:23:55.618Z,2.55
2023-07-22T15:26:22.169Z,4.70
2023-07-22T15:28:49.479Z,3.72
2023-07-22T15:31:19.363Z,5.22
2023-07-22T15:33:46.033Z,2.88
2023-07-22T15:36:12.913Z,6.18
2023-07-22T15:38:39.464Z,2.75
2023-07-22T15:41:05.973Z,2.60
2023-07-22T15:43:32.547Z,3.00
2023-07-22T15:46:00.140Z,4.03
2023-07-22T15:48:26.730Z,3.58
2023-07-22T15:50:53.475Z,5.57
2023-07-22T15:53:20.367Z,3.40
2023-07-22T15:55:47.015Z,3.55
2023-07-22T15:58:13.545Z,5.07
2023-07-22T16:00:40.261Z,2.85
2023-07-22T16:03:07.215Z,2.60
2023-07-22T16:05:33.884Z,2.90
2023-07-22T16:08:01.313Z,2.50
2023-07-22T16:10:28.266Z,6.60
2023-07-22T16:12:54.841Z,5.95
2023-07-22T16:15:21.483Z,2.70
2023-07-22T16:17:48.095Z,3.13
2023-07-22T16:20:14.918Z,4.40
2023-07-22T16:22:41.695Z,4.65
2023-07-22T16:25:10.383Z,6.85
2023-07-22T16:27:36.950Z,2.58
2023-07-22T16:30:04.156Z,9.02
2023-07-22T16:32:30.942Z,3.15
2023-07-22T16:34:57.671Z,3.05
2023-07-22T16:37:24.746Z,4.53
2023-07-22T16:39:54.619Z,3.85
2023-07-22T16:42:21.437Z,4.90
2023-07-22T16:44:48.136Z,4.03
2023-07-22T16:47:14.782Z,3.53
2023-07-22T16:49:41.533Z,3.97
2023-07-22T16:52:08.449Z,4.15
2023-07-22T16:54:34.923Z,5.57
2023-07-22T16:57:01.460Z,7.22
2023-07-22T16:59:27.966Z,3.80
2023-07-22T17:01:54.603Z,4.75
2023-07-22T17:04:21.113Z,4.60
2023-07-22T17:06:47.648Z,5.65
2023-07-22T17:09:14.890Z,2.88
2023-07-22T17:11:42.331Z,6.38
2023-07-22T17:14:08.970Z,6.55
2023-07-22T17:16:35.510Z,4.72
2023-07-22T17:19:02.038Z,5.03
2023-07-22T17:21:28.952Z,3.78
2023-07-22T17:23:55.623Z,3.38
2023-07-22T17:26:22.229Z,5.28
2023-07-22T17:28:48.749Z,4.50
2023-07-22T17:31:15.342Z,6.75
2023-07-22T17:33:42.232Z,5.50
2023-07-22T17:36:08.812Z,5.30
2023-07-22T17:38:35.455Z,5.13
2023-07-22T17:41:01.994Z,3.35
2023-07-22T17:43:28.552Z,6.97
2023-07-22T17:45:55.108Z,4.05
2023-07-22T17:48:22.464Z,3.85
2023-07-22T17:50:49.349Z,3.38
2023-07-22T17:53:16.022Z,6.05
2023-07-22T17:55:42.541Z,7.80
2023-07-22T17:58:09.104Z,5.85
2023-07-22T18:00:35.666Z,5.20
2023-07-22T18:03:02.226Z,5.60
2023-07-22T18:05:30.282Z,5.75
2023-07-22T18:07:56.992Z,7.88
2023-07-22T18:10:23.571Z,3.88
2023-07-22T18:12:50.033Z,7.20
2023-07-22T18:15:17.070Z,4.88
2023-07-22T18:17:43.601Z,7.88
2023-07-22T18:20:10.647Z,3.45
2023-07-22T18:22:37.272Z,3.80
2023-07-22T18:25:04.959Z,4.43
2023-07-22T18:27:31.532Z,4.13
2023-07-22T18:30:00.394Z,6.55
2023-07-22T18:32:30.862Z,5.78
2023-07-22T18:35:00.774Z,4.45
2023-07-22T18:37:28.128Z,5.95
2023-07-22T18:39:55.728Z,4.32
2023-07-22T18:42:22.424Z,7.05
2023-07-22T18:44:49.066Z,5.10
2023-07-22T18:47:17.326Z,6.97
2023-07-22T18:49:44.061Z,6.88
2023-07-22T18:52:10.579Z,6.53
2023-07-22T18:54:37.134Z,7.20
2023-07-22T18:57:03.838Z,7.88
2023-07-22T18:59:30.355Z,9.95
2023-07-22T19:01:56.886Z,5.75
2023-07-22T19:04:23.451Z,8.68
2023-07-22T19:06:52.616Z,8.75
2023-07-22T19:09:19.389Z,15.65
2023-07-22T19:11:45.993Z,6.57
2023-07-22T19:14:12.640Z,5.05
2023-07-22T19:16:39.263Z,5.70
2023-07-22T19:19:06.963Z,4.55
2023-07-22T19:21:33.601Z,4.72
2023-07-22T19:24:00.086Z,8.45
2023-07-22T19:26:26.629Z,4.75
2023-07-22T19:28:53.255Z,8.32
2023-07-22T19:31:19.873Z,6.20
2023-07-22T19:33:46.487Z,4.82
2023-07-22T19:36:13.075Z,5.28
2023-07-22T19:38:39.645Z,4.30
2023-07-22T19:41:13.995Z,7.03
2023-07-22T19:43:42.305Z,3.78
2023-07-22T19:46:12.796Z,4.70
2023-07-22T19:48:40.250Z,5.72
2023-07-22T19:51:09.105Z,4.13
2023-07-22T19:53:35.715Z,4.70
2023-07-22T19:56:06.230Z,4.30
2023-07-22T19:58:34.958Z,8.77
2023-07-22T20:01:04.029Z,5.40
2023-07-22T20:03:31.724Z,5.20
2023-07-22T20:05:58.697Z,4.18
2023-07-22T20:08:25.232Z,7.38
2023-07-22T20:10:52.792Z,3.88
2023-07-22T20:13:19.533Z,4.53
2023-07-22T20:15:46.687Z,8.27
2023-07-22T20:18:13.185Z,7.07
2023-07-22T20:20:39.721Z,5.30
2023-07-22T20:23:07.513Z,5.00
2023-07-22T20:25:34.368Z,5.00
2023-07-22T20:28:00.837Z,5.82
2023-07-22T20:30:28.081Z,8.00
2023-07-22T20:32:55.115Z,7.32
2023-07-22T20:35:22.304Z,4.50
2023-07-22T20:37:48.947Z,4.18
2023-07-22T20:40:15.621Z,8.10
2023-07-22T20:42:43.718Z,4.55
2023-07-22T20:45:10.636Z,5.57
2023-07-22T20:47:37.454Z,5.55
2023-07-22T20:50:04.670Z,4.30
2023-07-22T20:52:31.313Z,4.15
2023-07-22T20:54:58.008Z,4.68
2023-07-22T20:57:24.431Z,5.35
2023-07-22T20:59:55.450Z,3.85
2023-07-22T21:02:22.141Z,8.27
2023-07-22T21:04:48.813Z,5.40
2023-07-22T21:07:15.438Z,4.20
2023-07-22T21:09:42.133Z,4.70
2023-07-22T21:12:08.866Z,4.97
2023-07-22T21:14:35.408Z,4.57
2023-07-22T21:17:02.061Z,4.88
2023-07-22T21:19:28.653Z,6.45
2023-07-22T21:21:55.212Z,7.03
2023-07-22T21:24:22.946Z,5.95
2023-07-22T21:26:50.188Z,4.97
2023-07-22T21:29:16.897Z,5.43
2023-07-22T21:31:43.499Z,5.43
2023-07-22T21:34:15.594Z,4.90
2023-07-22T21:36:42.588Z,4.15
2023-07-22T21:39:09.198Z,8.63
2023-07-22T21:41:35.768Z,11.40
2023-07-22T21:44:02.293Z,8.88
2023-07-22T21:46:28.836Z,8.73
2023-07-22T21:48:55.424Z,5.65
2023-07-22T21:51:21.918Z,6.00
2023-07-22T21:53:50.224Z,6.18
2023-07-22T21:56:17.098Z,6.55
2023-07-22T21:58:43.661Z,7.32
2023-07-22T22:01:10.237Z,7.32
2023-07-22T22:03:36.846Z,6.15
2023-07-22T22:06:03.466Z,5.60
2023-07-22T22:08:29.963Z,9.90
2023-07-22T22:10:56.538Z,5.32
2023-07-22T22:13:25.702Z,7.95
2023-07-22T22:15:52.686Z,17.25
2023-07-22T22:18:19.360Z,9.45
2023-07-22T22:20:45.911Z,5.50
2023-07-22T22:23:14.139Z,6.97
2023-07-22T22:25:40.799Z,6.55
2023-07-22T22:28:07.381Z,7.10
2023-07-22T22:30:33.903Z,9.90
2023-07-22T22:33:00.540Z,7.07
2023-07-22T22:35:27.075Z,8.65
2023-07-22T22:37:53.634Z,7.45
2023-07-22T22:40:20.213Z,5.97
2023-07-22T22:42:46.796Z,5.80
2023-07-22T22:45:13.720Z,6.38
2023-07-22T22:47:40.341Z,5.72
2023-07-22T22:50:07.424Z,6.38
2023-07-22T22:52:35.653Z,7.60
2023-07-22T22:55:02.906Z,6.00
2023-07-22T22:57:29.389Z,6.32
2023-07-22T22:59:55.927Z,6.18
2023-07-22T23:02:22.516Z,9.77
2023-07-22T23:04:49.036Z,7.57
2023-07-22T23:07:15.571Z,7.13
2023-07-22T23:09:42.224Z,11.15
2023-07-22T23:12:09.097Z,6.50
2023-07-22T23:14:37.842Z,9.10
2023-07-22T23:17:04.460Z,6.18
2023-07-22T23:19:31.063Z,7.97
2023-07-22T23:21:57.684Z,6.72
2023-07-22T23:24:24.278Z,8.55
2023-07-22T23:26:50.825Z,7.43
2023-07-22T23:29:17.414Z,7.07
2023-07-22T23:31:44.000Z,6.35
2023-07-22T23:34:10.645Z,6.28
2023-07-22T23:36:37.543Z,8.43
2023-07-22T23:39:05.518Z,8.77
2023-07-22T23:41:32.028Z,6.35
2023-07-22T23:43:58.625Z,7.80
2023-07-22T23:46:25.176Z,5.70
2023-07-22T23:48:51.848Z,6.18
2023-07-22T23:51:20.479Z,9.40
2023-07-22T23:53:48.886Z,7.22
2023-07-22T23:56:15.486Z,7.55
2023-07-22T23:58:42.255Z,10.02
